Time;durP1;ratioP1;P1;durP2;ratioP2;P2;SDS_P1;SDS_P2;PMS_P1;PMS_P2;Temp;Humidity;BMP_temperature;BMP_pressure;BME280_temperature;BME280_humidity;BME280_pressure;Samples;Min_cycle;Max_cycle;Signal;HPM_P1;HPM_P2
2022/07/30 00:00:44;;;;;;;;;;;;;;;21.03;48.34;98980.34;2618129;47;19970;-67
2022/07/30 00:03:14;;;;;;;;;;;;;;;21.02;48.25;98962.56;2619177;54;19942;-65
2022/07/30 00:05:43;;;;;;;;;;;;;;;21.01;48.55;98967.13;2618970;54;20022;-67
2022/07/30 00:08:13;;;;;;;;;;;;;;;20.93;48.80;98967.59;2618878;54;19950;-67
2022/07/30 00:10:42;;;;;;;;;;;;;;;20.91;49.04;98966.25;2618758;54;19947;-66
2022/07/30 00:13:14;;;;;;;;;;;;;;;20.94;48.64;98961.19;2619498;39;20337;-67
2022/07/30 00:15:46;;;;;;;;;;;;;;;20.91;48.99;98963.56;2617914;54;19947;-67
2022/07/30 00:18:15;;;;;;;;;;;;;;;20.91;48.83;98958.19;2617974;47;19947;-67
2022/07/30 00:20:45;;;;;;;;;;;;;;;20.88;48.89;98948.75;2618171;54;19946;-66
2022/07/30 00:23:16;;;;;;;;;;;;;;;20.80;49.19;98954.59;2618798;54;20489;-67
2022/07/30 00:25:46;;;;;;;;;;;;;;;20.72;49.38;98952.38;2618576;54;19946;-67
2022/07/30 00:28:15;;;;;;;;;;;;;;;20.63;49.58;98943.97;2617682;54;19953;-67
2022/07/30 00:30:47;;;;;;;;;;;;;;;20.58;49.23;98946.63;2618368;39;20094;-67
2022/07/30 00:33:23;;;;;;;;;;;;;;;20.55;49.31;98946.31;2618347;54;19947;-67
2022/07/30 00:35:54;;;;;;;;;;;;;;;20.51;49.75;98943.31;2617887;54;19946;-67
2022/07/30 00:38:23;;;;;;;;;;;;;;;20.35;50.14;98947.69;2618654;54;19954;-67
2022/07/30 00:40:52;;;;;;;;;;;;;;;20.32;50.28;98947.38;2618329;54;19938;-67
2022/07/30 00:43:22;;;;;;;;;;;;;;;20.32;50.12;98950.06;2617701;47;19962;-67
2022/07/30 00:45:54;;;;;;;;;;;;;;;20.35;50.08;98949.56;2618519;54;19946;-68
2022/07/30 00:48:23;;;;;;;;;;;;;;;20.40;50.48;98944.25;2618365;54;19946;-67
2022/07/30 00:50:53;;;;;;;;;;;;;;;20.38;50.32;98943.69;2618860;39;20326;-67
2022/07/30 00:53:22;;;;;;;;;;;;;;;20.34;50.67;98951.44;2618707;47;19939;-67
2022/07/30 00:55:51;;;;;;;;;;;;;;;20.14;50.74;98953.91;2620732;54;20434;-66
2022/07/30 00:58:21;;;;;;;;;;;;;;;20.03;51.63;98950.28;2620107;54;19951;-66
2022/07/30 01:00:53;;;;;;;;;;;;;;;19.98;51.58;98950.22;2619667;54;19946;-68
2022/07/30 01:03:23;;;;;;;;;;;;;;;19.85;51.96;98951.41;2619270;54;19941;-68
2022/07/30 01:05:52;;;;;;;;;;;;;;;19.75;52.48;98952.06;2619876;54;19973;-67
2022/07/30 01:08:23;;;;;;;;;;;;;;;19.68;52.64;98954.16;2620847;54;20454;-66
2022/07/30 01:10:53;;;;;;;;;;;;;;;19.71;52.60;98948.28;2620104;54;20033;-66
2022/07/30 01:13:22;;;;;;;;;;;;;;;19.76;52.57;98947.56;2619232;54;19950;-66
2022/07/30 01:15:56;;;;;;;;;;;;;;;19.67;52.41;98955.19;2620001;54;19946;-67
2022/07/30 01:19:47;;;;;;;;;;;;;;;19.61;53.07;98945.47;2619580;47;19950;-68
2022/07/30 01:21:17;;;;;;;;;;;;;;;19.60;52.56;98957.22;2620464;54;19946;-68
2022/07/30 01:23:49;;;;;;;;;;;;;;;19.58;52.78;98951.28;2620901;54;19939;-66
2022/07/30 01:26:22;;;;;;;;;;;;;;;19.43;53.61;98951.06;2619817;47;19950;-68
2022/07/30 01:28:53;;;;;;;;;;;;;;;19.34;53.65;98957.91;2620701;54;19938;-67
2022/07/30 01:31:25;;;;;;;;;;;;;;;19.20;53.89;98952.09;2621050;47;20042;-67
2022/07/30 01:33:56;;;;;;;;;;;;;;;18.98;54.14;98955.50;2620590;47;20082;-70
2022/07/30 01:36:28;;;;;;;;;;;;;;;18.95;54.90;98956.00;2621484;47;20177;-66
2022/07/30 01:38:59;;;;;;;;;;;;;;;18.96;54.55;98954.94;2621957;48;19947;-66
2022/07/30 01:41:32;;;;;;;;;;;;;;;18.99;54.28;98961.69;2622408;54;19946;-68
2022/07/30 01:44:02;;;;;;;;;;;;;;;19.03;54.62;98966.31;2621779;47;20449;-68
2022/07/30 01:46:33;;;;;;;;;;;;;;;18.96;54.59;98965.66;2623288;31;20454;-67
2022/07/30 01:49:02;;;;;;;;;;;;;;;18.98;54.71;98965.38;2621854;47;19951;-66
2022/07/30 01:51:35;;;;;;;;;;;;;;;18.89;55.14;98953.47;2621732;54;19954;-66
2022/07/30 01:54:08;;;;;;;;;;;;;;;18.81;55.04;98965.38;2621395;54;20430;-66
2022/07/30 01:56:41;;;;;;;;;;;;;;;18.84;54.93;98958.75;2622001;54;19953;-67
2022/07/30 01:59:12;;;;;;;;;;;;;;;18.81;55.24;98966.19;2620971;54;20477;-66
2022/07/30 02:01:41;;;;;;;;;;;;;;;18.75;55.57;98977.88;2621294;39;20041;-67
2022/07/30 02:04:11;;;;;;;;;;;;;;;18.70;55.58;98977.00;2620402;54;19939;-66
2022/07/30 02:06:43;;;;;;;;;;;;;;;18.73;55.47;98976.50;2620001;54;19938;-67
2022/07/30 02:09:17;;;;;;;;;;;;;;;18.70;55.78;98975.13;2620359;54;20038;-66
2022/07/30 02:14:39;;;;;;;;;;;;;;;18.60;55.70;98976.75;2621949;39;20393;-67
2022/07/30 02:17:09;;;;;;;;;;;;;;;18.55;56.17;98977.50;2620753;47;19945;-66
2022/07/30 02:19:51;;;;;;;;;;;;;;;18.50;56.14;98980.09;2620328;54;20029;-66
2022/07/30 02:22:22;;;;;;;;;;;;;;;18.47;56.64;98976.00;2619921;54;19946;-66
2022/07/30 02:24:52;;;;;;;;;;;;;;;18.47;56.05;98973.34;2620236;54;19939;-68
2022/07/30 02:27:27;;;;;;;;;;;;;;;18.42;56.08;98975.91;2619651;47;19950;-66
2022/07/30 02:29:59;;;;;;;;;;;;;;;18.38;56.47;98972.09;2620205;47;19946;-66
2022/07/30 02:32:32;;;;;;;;;;;;;;;18.40;56.62;98971.84;2621465;39;20338;-66
2022/07/30 02:35:03;;;;;;;;;;;;;;;18.46;56.60;98973.59;2621292;54;19998;-66
2022/07/30 02:37:34;;;;;;;;;;;;;;;18.46;56.88;98973.59;2621576;54;19949;-66
2022/07/30 02:40:15;;;;;;;;;;;;;;;18.50;56.57;98982.75;2620423;54;20542;-68
2022/07/30 02:42:48;;;;;;;;;;;;;;;18.55;56.57;98978.31;2621734;39;20386;-66
2022/07/30 02:45:21;;;;;;;;;;;;;;;18.32;56.35;98983.75;2619920;47;19946;-66
2022/07/30 02:47:52;;;;;;;;;;;;;;;17.97;56.78;98990.03;2621058;39;20357;-66
2022/07/30 02:50:23;;;;;;;;;;;;;;;17.67;58.28;98983.97;2620147;47;19940;-65
2022/07/30 02:52:54;;;;;;;;;;;;;;;17.61;58.83;98987.59;2620313;47;19954;-66
2022/07/30 02:55:24;;;;;;;;;;;;;;;17.67;58.71;98994.66;2619591;54;19945;-66
2022/07/30 02:57:57;;;;;;;;;;;;;;;17.69;58.64;98992.59;2619361;47;20034;-66
2022/07/30 03:00:28;;;;;;;;;;;;;;;17.87;58.64;98991.66;2619660;47;19953;-65
2022/07/30 03:03:00;;;;;;;;;;;;;;;18.03;58.14;98996.28;2619626;54;19996;-65
2022/07/30 03:05:30;;;;;;;;;;;;;;;18.08;58.33;98993.69;2619029;47;19953;-66
2022/07/30 03:08:02;;;;;;;;;;;;;;;18.22;57.61;98991.59;2620088;54;19946;-67
2022/07/30 03:10:31;;;;;;;;;;;;;;;18.16;58.09;98995.19;2620955;54;19939;-66
2022/07/30 03:13:03;;;;;;;;;;;;;;;18.15;57.54;98993.56;2620962;54;19946;-67
2022/07/30 03:15:34;;;;;;;;;;;;;;;18.03;57.99;98997.09;2621850;54;19939;-67
2022/07/30 03:18:08;;;;;;;;;;;;;;;18.09;57.95;98998.03;2621130;47;19942;-67
2022/07/30 03:20:38;;;;;;;;;;;;;;;18.09;57.93;98990.00;2621563;54;19947;-66
2022/07/30 03:23:09;;;;;;;;;;;;;;;18.15;57.62;98999.75;2621497;54;19947;-66
2022/07/30 03:25:39;;;;;;;;;;;;;;;18.12;57.54;98991.38;2620830;51;19950;-66
2022/07/30 03:28:12;;;;;;;;;;;;;;;18.03;58.11;98993.59;2620498;54;19939;-66
2022/07/30 03:30:42;;;;;;;;;;;;;;;17.93;58.19;98996.88;2620538;51;19950;-66
2022/07/30 03:33:13;;;;;;;;;;;;;;;17.89;58.13;98995.72;2619656;54;19949;-66
2022/07/30 03:35:46;;;;;;;;;;;;;;;17.89;58.27;98993.06;2617732;54;19950;-66
2022/07/30 03:38:16;;;;;;;;;;;;;;;17.91;58.26;98992.81;2618442;54;19946;-67
2022/07/30 03:40:46;;;;;;;;;;;;;;;17.86;58.58;98998.06;2617627;47;19939;-67
2022/07/30 03:43:19;;;;;;;;;;;;;;;17.90;58.44;98999.22;2620312;54;19938;-67
2022/07/30 03:46:04;;;;;;;;;;;;;;;17.85;58.73;98997.25;2621559;54;19947;-66
2022/07/30 03:48:37;;;;;;;;;;;;;;;17.63;58.66;98998.84;2620611;54;19946;-66
2022/07/30 03:51:08;;;;;;;;;;;;;;;17.40;59.64;99000.50;2618640;54;19946;-66
2022/07/30 03:53:42;;;;;;;;;;;;;;;17.40;59.39;99000.50;2617744;54;19947;-68
2022/07/30 03:56:30;;;;;;;;;;;;;;;17.55;59.76;99005.38;2618261;54;19993;-67
2022/07/30 03:59:17;;;;;;;;;;;;;;;17.67;59.07;99005.38;2617620;54;19946;-67
2022/07/30 04:01:47;;;;;;;;;;;;;;;17.68;59.07;99013.16;2588969;51;20034;-68
2022/07/30 04:04:25;;;;;;;;;;;;;;;17.78;59.29;99016.09;2619558;31;20425;-67
2022/07/30 04:06:55;;;;;;;;;;;;;;;17.85;58.59;99021.31;2618831;54;19950;-66
2022/07/30 04:09:25;;;;;;;;;;;;;;;17.88;59.02;99025.38;2619018;54;19954;-66
2022/07/30 04:11:54;;;;;;;;;;;;;;;17.88;58.93;99033.38;2618640;54;19950;-68
2022/07/30 04:14:40;;;;;;;;;;;;;;;17.85;58.49;99025.84;2618870;54;19939;-66
2022/07/30 04:17:11;;;;;;;;;;;;;;;17.77;59.16;99024.34;2623407;54;19946;-67
2022/07/30 04:19:45;;;;;;;;;;;;;;;17.81;58.73;99028.19;2623449;47;19950;-67
2022/07/30 04:22:18;;;;;;;;;;;;;;;17.83;59.14;99032.22;2623014;47;19958;-67
2022/07/30 04:24:48;;;;;;;;;;;;;;;17.85;58.64;99032.00;2623107;46;19958;-68
2022/07/30 04:27:18;;;;;;;;;;;;;;;17.89;58.89;99035.84;2623910;54;19950;-67
2022/07/30 04:29:50;;;;;;;;;;;;;;;17.94;58.93;99037.81;2621557;54;19946;-66
2022/07/30 04:32:20;;;;;;;;;;;;;;;17.94;58.50;99041.31;2618723;47;19981;-67
2022/07/30 04:35:16;;;;;;;;;;;;;;;17.94;58.93;99045.84;2618708;54;19946;-67
2022/07/30 04:38:17;;;;;;;;;;;;;;;17.97;59.05;99040.84;2619222;54;19938;-66
2022/07/30 04:40:51;;;;;;;;;;;;;;;18.09;59.00;99043.50;2618642;47;20065;-67
2022/07/30 04:43:20;;;;;;;;;;;;;;;18.15;58.39;99050.56;2618636;47;19957;-68
2022/07/30 04:45:52;;;;;;;;;;;;;;;18.21;58.87;99051.50;2619295;39;20369;-66
2022/07/30 04:48:24;;;;;;;;;;;;;;;18.29;58.26;99056.50;2618441;54;19946;-67
2022/07/30 04:51:06;;;;;;;;;;;;;;;18.30;58.12;99060.78;2618703;39;20361;-68
2022/07/30 04:53:36;;;;;;;;;;;;;;;18.22;58.34;99061.16;2618367;54;19947;-67
2022/07/30 04:56:07;;;;;;;;;;;;;;;18.25;58.22;99056.16;2618931;39;20454;-66
2022/07/30 04:58:40;;;;;;;;;;;;;;;18.30;58.48;99071.50;2618422;47;19969;-66
2022/07/30 05:01:13;;;;;;;;;;;;;;;18.40;58.34;99063.66;2618903;54;19974;-67
2022/07/30 05:03:43;;;;;;;;;;;;;;;18.54;57.81;99062.34;2623018;54;19934;-68
2022/07/30 05:06:14;;;;;;;;;;;;;;;18.56;57.55;99065.59;2621957;54;19961;-66
2022/07/30 05:08:44;;;;;;;;;;;;;;;18.56;58.01;99065.59;2618575;47;19950;-66
2022/07/30 05:11:14;;;;;;;;;;;;;;;18.52;57.95;99066.31;2618577;54;20022;-66
2022/07/30 05:13:47;;;;;;;;;;;;;;;18.58;57.53;99065.38;2619247;54;19957;-66
2022/07/30 05:16:23;;;;;;;;;;;;;;;18.58;57.78;99070.72;2618716;54;19938;-65
2022/07/30 05:18:55;;;;;;;;;;;;;;;18.65;57.32;99066.03;2618636;54;19946;-66
2022/07/30 05:21:25;;;;;;;;;;;;;;;18.68;57.35;99068.22;2618571;47;19950;-67
2022/07/30 05:23:58;;;;;;;;;;;;;;;18.80;57.48;99065.53;2618379;47;19942;-67
2022/07/30 05:26:38;;;;;;;;;;;;;;;18.83;56.84;99067.75;2618620;54;19943;-67
2022/07/30 05:29:09;;;;;;;;;;;;;;;18.93;56.79;99069.78;2617859;54;19939;-67
2022/07/30 05:31:56;;;;;;;;;;;;;;;18.89;56.94;99068.63;2617277;54;19939;-67
2022/07/30 05:34:34;;;;;;;;;;;;;;;18.86;57.10;99077.16;2618409;54;19942;-67
2022/07/30 05:37:03;;;;;;;;;;;;;;;18.62;57.22;99073.75;2618422;47;19951;-67
2022/07/30 05:39:33;;;;;;;;;;;;;;;18.62;57.57;99074.56;2617754;54;20066;-67
2022/07/30 05:42:25;;;;;;;;;;;;;;;18.73;57.26;99070.22;2618321;54;19973;-67
2022/07/30 05:44:59;;;;;;;;;;;;;;;18.83;57.58;99073.09;2618388;54;19950;-66
2022/07/30 05:47:31;;;;;;;;;;;;;;;18.85;57.22;99070.97;2618493;51;19981;-66
2022/07/30 05:50:01;;;;;;;;;;;;;;;18.89;57.15;99082.03;2618289;47;19939;-66
2022/07/30 05:52:34;;;;;;;;;;;;;;;18.94;56.87;99082.13;2617982;54;20055;-67
2022/07/30 05:55:15;;;;;;;;;;;;;;;19.00;56.59;99076.63;2618112;54;19947;-67
2022/07/30 05:57:55;;;;;;;;;;;;;;;18.87;56.65;99076.94;2617965;54;19938;-67
2022/07/30 06:00:24;;;;;;;;;;;;;;;18.92;57.58;99071.66;2618465;39;19994;-66
2022/07/30 06:02:58;;;;;;;;;;;;;;;19.12;57.15;99079.25;2617933;54;20498;-67
2022/07/30 06:05:28;;;;;;;;;;;;;;;19.33;57.10;99082.28;2618579;54;19966;-67
2022/07/30 06:08:00;;;;;;;;;;;;;;;19.47;56.42;99087.09;2618401;47;19950;-65
2022/07/30 06:10:31;;;;;;;;;;;;;;;19.55;56.31;99086.69;2617934;54;20451;-65
2022/07/30 06:13:01;;;;;;;;;;;;;;;19.62;55.71;99086.53;2618748;54;20041;-66
2022/07/30 06:15:30;;;;;;;;;;;;;;;19.68;55.90;99080.19;2618293;47;20067;-66
2022/07/30 06:18:04;;;;;;;;;;;;;;;19.76;55.24;99078.97;2618170;54;19946;-66
2022/07/30 06:20:44;;;;;;;;;;;;;;;19.83;55.68;99081.47;2618320;54;19942;-67
2022/07/30 06:23:32;;;;;;;;;;;;;;;19.99;55.35;99088.69;2619316;54;19950;-67
2022/07/30 06:26:24;;;;;;;;;;;;;;;20.02;54.80;99086.31;2618604;54;19977;-66
2022/07/30 06:28:54;;;;;;;;;;;;;;;19.98;55.08;99087.88;2618177;54;20476;-67
2022/07/30 06:31:30;;;;;;;;;;;;;;;20.12;54.90;99091.00;2618381;54;20066;-66
2022/07/30 06:34:02;;;;;;;;;;;;;;;20.31;54.56;99091.53;2618179;54;20433;-66
2022/07/30 06:36:38;;;;;;;;;;;;;;;20.43;54.55;99094.91;2618507;54;19975;-66
2022/07/30 06:39:14;;;;;;;;;;;;;;;20.56;53.80;99090.25;2618781;54;19938;-66
2022/07/30 06:42:28;;;;;;;;;;;;;;;20.63;54.03;99089.00;2619456;47;19939;-66
2022/07/30 06:45:16;;;;;;;;;;;;;;;20.81;53.46;99095.09;2620539;54;19966;-66
2022/07/30 06:48:06;;;;;;;;;;;;;;;20.86;53.29;99093.31;2619582;54;19951;-65
2022/07/30 06:50:40;;;;;;;;;;;;;;;20.96;52.69;99098.78;2619062;47;19954;-66
2022/07/30 06:53:09;;;;;;;;;;;;;;;21.08;52.87;99097.81;2619178;54;19957;-66
2022/07/30 06:55:57;;;;;;;;;;;;;;;21.12;52.27;99093.56;2622765;54;19977;-67
2022/07/30 06:58:35;;;;;;;;;;;;;;;21.18;52.89;99100.59;2620677;47;19947;-66
2022/07/30 07:01:27;;;;;;;;;;;;;;;21.30;52.51;99097.75;2620873;54;20484;-67
2022/07/30 07:03:57;;;;;;;;;;;;;;;21.43;51.91;99091.97;2620401;54;20439;-68
2022/07/30 07:06:30;;;;;;;;;;;;;;;21.55;51.81;99094.47;2622637;39;20322;-68
2022/07/30 07:09:00;;;;;;;;;;;;;;;21.59;51.59;99096.41;2620533;54;19947;-67
2022/07/30 07:11:37;;;;;;;;;;;;;;;21.75;51.67;99094.63;2620868;31;20434;-66
2022/07/30 07:14:11;;;;;;;;;;;;;;;21.85;51.32;99092.03;2619291;54;19938;-67
2022/07/30 07:16:40;;;;;;;;;;;;;;;21.87;50.97;99094.44;2619824;54;19947;-67
2022/07/30 07:19:32;;;;;;;;;;;;;;;21.98;51.05;99091.56;2620048;54;19958;-67
2022/07/30 07:22:24;;;;;;;;;;;;;;;22.10;50.12;99101.34;2619596;47;19950;-67
2022/07/30 07:24:54;;;;;;;;;;;;;;;22.23;49.70;99093.63;2620099;54;19969;-65
2022/07/30 07:27:28;;;;;;;;;;;;;;;22.20;49.78;99094.13;2620399;39;20357;-67
2022/07/30 07:30:01;;;;;;;;;;;;;;;22.16;49.35;99095.72;2620262;39;20357;-67
2022/07/30 07:32:35;;;;;;;;;;;;;;;22.27;49.23;99098.50;2620477;54;19946;-66
2022/07/30 07:35:05;;;;;;;;;;;;;;;22.29;49.37;99096.34;2620619;46;20418;-67
2022/07/30 07:37:41;;;;;;;;;;;;;;;22.36;49.08;99092.34;2620964;54;19955;-67
2022/07/30 07:40:17;;;;;;;;;;;;;;;22.43;48.54;99092.91;2620192;47;19977;-67
2022/07/30 07:42:47;;;;;;;;;;;;;;;22.56;48.43;99091.63;2620755;47;19942;-66
2022/07/30 07:45:19;;;;;;;;;;;;;;;22.64;48.45;99091.09;2620370;47;20406;-66
2022/07/30 07:47:58;;;;;;;;;;;;;;;22.77;48.19;99087.09;2620721;54;19939;-67
2022/07/30 07:50:56;;;;;;;;;;;;;;;22.96;48.43;99087.44;2622240;54;20670;-68
2022/07/30 07:53:34;;;;;;;;;;;;;;;23.12;47.61;99091.78;2623288;54;19945;-67
2022/07/30 07:56:07;;;;;;;;;;;;;;;23.23;47.40;99084.53;2623553;47;19939;-68
2022/07/30 07:58:37;;;;;;;;;;;;;;;23.36;46.59;99084.00;2622902;47;20466;-67
2022/07/30 08:01:10;;;;;;;;;;;;;;;23.35;46.20;99084.25;2622220;54;19995;-68
2022/07/30 08:04:12;;;;;;;;;;;;;;;23.36;45.69;99078.59;2624456;54;20031;-66
2022/07/30 08:07:01;;;;;;;;;;;;;;;23.33;44.88;99072.94;2623883;47;19950;-67
2022/07/30 08:10:12;;;;;;;;;;;;;;;23.44;44.48;99078.06;2622514;47;19999;-67
2022/07/30 08:12:59;;;;;;;;;;;;;;;23.57;44.85;99071.31;2622393;47;20458;-68
2022/07/30 08:15:47;;;;;;;;;;;;;;;23.82;44.06;99067.81;2623643;54;20480;-65
2022/07/30 08:18:37;;;;;;;;;;;;;;;23.93;42.58;99071.31;2621862;54;19943;-67
2022/07/30 08:21:25;;;;;;;;;;;;;;;23.99;42.25;99054.00;2621751;54;19950;-66
2022/07/30 08:23:54;;;;;;;;;;;;;;;24.05;41.96;99074.50;2619537;46;19946;-66
2022/07/30 08:26:27;;;;;;;;;;;;;;;24.03;41.84;99062.34;2619813;54;19950;-66
2022/07/30 08:28:56;;;;;;;;;;;;;;;24.11;41.15;99072.59;2620530;47;19946;-66
2022/07/30 08:31:26;;;;;;;;;;;;;;;24.27;40.32;99076.88;2619857;39;20514;-68
2022/07/30 08:33:55;;;;;;;;;;;;;;;24.37;39.56;99070.59;2618579;47;19934;-66
2022/07/30 08:36:24;;;;;;;;;;;;;;;24.42;39.56;99066.03;2618309;53;19949;-66
2022/07/30 08:38:55;;;;;;;;;;;;;;;24.52;39.07;99061.66;2618997;54;19946;-66
2022/07/30 08:41:27;;;;;;;;;;;;;;;24.63;38.58;99066.75;2619090;47;19962;-67
2022/07/30 08:43:57;;;;;;;;;;;;;;;24.64;37.63;99072.94;2621370;54;19947;-65
2022/07/30 08:46:29;;;;;;;;;;;;;;;24.63;37.72;99069.44;2621097;54;19954;-66
2022/07/30 08:49:03;;;;;;;;;;;;;;;24.76;38.39;99070.72;2619618;54;19947;-66
2022/07/30 08:51:39;;;;;;;;;;;;;;;24.93;37.44;99065.75;2620313;47;19950;-66
2022/07/30 08:54:40;;;;;;;;;;;;;;;25.19;37.08;99071.03;2619085;47;19946;-66
2022/07/30 08:57:13;;;;;;;;;;;;;;;25.29;37.83;99065.53;2618465;47;19958;-67
2022/07/30 08:59:43;;;;;;;;;;;;;;;25.28;37.94;99060.41;2618166;47;19953;-66
2022/07/30 09:02:31;;;;;;;;;;;;;;;25.39;37.73;99061.91;2619026;54;19946;-65
2022/07/30 09:05:05;;;;;;;;;;;;;;;25.51;37.97;99065.06;2617923;54;19947;-65
2022/07/30 09:07:36;;;;;;;;;;;;;;;25.75;37.52;99062.41;2618858;54;19946;-67
2022/07/30 09:10:09;;;;;;;;;;;;;;;25.69;37.21;99050.84;2618386;47;20434;-68
2022/07/30 09:12:42;;;;;;;;;;;;;;;25.82;36.93;99062.13;2618725;54;20089;-68
2022/07/30 09:15:14;;;;;;;;;;;;;;;25.98;36.71;99052.75;2619046;39;20342;-68
2022/07/30 09:17:51;;;;;;;;;;;;;;;26.01;35.77;99060.28;2618400;54;19946;-67
2022/07/30 09:20:23;;;;;;;;;;;;;;;25.94;35.87;99057.91;2619177;31;20438;-68
2022/07/30 09:22:55;;;;;;;;;;;;;;;25.77;35.63;99062.16;2618384;54;20446;-67
2022/07/30 09:25:44;;;;;;;;;;;;;;;25.81;35.19;99060.50;2619100;54;19949;-68
2022/07/30 09:28:37;;;;;;;;;;;;;;;25.77;34.76;99062.16;2619710;39;20338;-67
2022/07/30 09:31:29;;;;;;;;;;;;;;;25.84;34.05;99065.31;2618584;47;19950;-66
2022/07/30 09:34:38;;;;;;;;;;;;;;;25.93;34.45;99056.31;2618684;54;20037;-66
2022/07/30 09:37:18;;;;;;;;;;;;;;;26.00;34.15;99061.38;2618985;54;19997;-67
2022/07/30 09:40:12;;;;;;;;;;;;;;;25.94;33.90;99059.81;2619266;54;19977;-66
2022/07/30 09:43:20;;;;;;;;;;;;;;;26.09;33.81;99064.28;2617762;47;20066;-67
2022/07/30 09:46:04;;;;;;;;;;;;;;;26.29;33.87;99057.78;2618049;39;20434;-68
2022/07/30 09:48:34;;;;;;;;;;;;;;;26.41;33.40;99050.06;2618634;39;20322;-67
2022/07/30 09:51:04;;;;;;;;;;;;;;;26.48;33.49;99063.28;2619395;54;20564;-66
2022/07/30 09:53:57;;;;;;;;;;;;;;;26.53;33.26;99074.84;2619236;54;19946;-67
2022/07/30 09:56:31;;;;;;;;;;;;;;;26.43;33.37;99062.22;2618122;54;19954;-67
2022/07/30 09:59:01;;;;;;;;;;;;;;;26.61;33.06;99055.22;2617978;54;20047;-66
2022/07/30 10:01:48;;;;;;;;;;;;;;;26.73;33.22;99064.84;2618102;54;19939;-66
2022/07/30 10:05:12;;;;;;;;;;;;;;;26.91;32.84;99051.31;2617558;54;19980;-65
2022/07/30 10:07:53;;;;;;;;;;;;;;;26.97;32.32;99051.22;2617905;54;20411;-65
2022/07/30 10:10:24;;;;;;;;;;;;;;;27.00;31.56;99047.94;2618494;39;20361;-66
2022/07/30 10:12:56;;;;;;;;;;;;;;;26.99;31.18;99049.84;2618366;39;20362;-64
2022/07/30 10:15:26;;;;;;;;;;;;;;;26.84;32.04;99048.16;2616556;54;19934;-66
2022/07/30 10:17:56;;;;;;;;;;;;;;;27.01;31.69;99050.34;2617366;54;19987;-67
2022/07/30 10:20:48;;;;;;;;;;;;;;;27.14;31.25;99046.88;2618483;54;19967;-67
2022/07/30 10:23:36;;;;;;;;;;;;;;;27.25;31.23;99033.97;2619043;39;20410;-66
2022/07/30 10:26:34;;;;;;;;;;;;;;;27.35;31.07;99039.25;2618796;54;19957;-66
2022/07/30 10:29:37;;;;;;;;;;;;;;;27.38;30.54;99035.13;2617877;54;19981;-66
2022/07/30 10:32:11;;;;;;;;;;;;;;;27.44;30.75;99038.56;2618477;54;20449;-67
2022/07/30 10:34:42;;;;;;;;;;;;;;;27.52;30.12;99027.03;2618573;54;19953;-66
2022/07/30 10:37:15;;;;;;;;;;;;;;;27.77;29.69;99023.06;2618294;54;19954;-67
2022/07/30 10:39:49;;;;;;;;;;;;;;;27.60;29.79;99031.78;2617926;54;19943;-67
2022/07/30 10:42:27;;;;;;;;;;;;;;;27.53;29.74;99034.06;2618844;39;20067;-68
2022/07/30 10:45:11;;;;;;;;;;;;;;;27.42;29.71;99034.22;2618134;54;19942;-66
2022/07/30 10:47:46;;;;;;;;;;;;;;;27.51;29.10;99028.09;2618836;39;20357;-67
2022/07/30 10:50:18;;;;;;;;;;;;;;;27.54;29.17;99016.66;2618362;54;19946;-67
2022/07/30 10:52:54;;;;;;;;;;;;;;;27.62;29.42;99024.91;2618393;54;20434;-67
2022/07/30 10:55:24;;;;;;;;;;;;;;;27.75;29.18;99014.41;2618872;39;20454;-67
2022/07/30 10:58:08;;;;;;;;;;;;;;;27.80;28.38;99026.00;2618553;54;19939;-67
2022/07/30 11:00:58;;;;;;;;;;;;;;;27.78;28.69;99030.09;2618100;39;20429;-67
2022/07/30 11:03:28;;;;;;;;;;;;;;;27.99;28.66;99014.22;2618415;54;19954;-66
2022/07/30 11:06:26;;;;;;;;;;;;;;;28.07;28.30;99010.78;2618542;54;20509;-67
2022/07/30 11:08:58;;;;;;;;;;;;;;;28.01;28.82;99026.41;2617822;46;19969;-66
2022/07/30 11:11:43;;;;;;;;;;;;;;;27.85;28.59;99020.44;2618268;54;19942;-67
2022/07/30 11:14:47;;;;;;;;;;;;;;;27.85;29.03;99012.31;2617614;54;19970;-67
2022/07/30 11:17:18;;;;;;;;;;;;;;;27.88;28.81;99014.44;2618988;54;20430;-67
2022/07/30 11:20:03;;;;;;;;;;;;;;;28.01;28.67;99012.81;2618798;54;19953;-67
2022/07/30 11:22:37;;;;;;;;;;;;;;;28.20;28.22;99001.00;2618051;54;19939;-67
2022/07/30 11:25:11;;;;;;;;;;;;;;;28.31;28.40;99003.22;2618458;54;19951;-70
2022/07/30 11:27:44;;;;;;;;;;;;;;;28.43;28.04;98999.19;2619187;54;19946;-67
2022/07/30 11:30:29;;;;;;;;;;;;;;;28.49;27.57;98998.75;2618483;54;19939;-67
2022/07/30 11:33:19;;;;;;;;;;;;;;;28.66;27.61;99006.31;2618361;54;19942;-67
2022/07/30 11:36:06;;;;;;;;;;;;;;;28.67;27.28;98997.03;2618245;54;19947;-66
2022/07/30 11:38:53;;;;;;;;;;;;;;;28.48;27.26;98989.00;2618397;54;20066;-66
2022/07/30 11:41:26;;;;;;;;;;;;;;;28.38;26.89;98995.47;2618458;39;20377;-67
2022/07/30 11:44:10;;;;;;;;;;;;;;;28.31;27.39;98995.06;2619967;54;19946;-67
2022/07/30 11:46:49;;;;;;;;;;;;;;;28.21;27.78;98991.75;2619265;54;19954;-67
2022/07/30 11:49:20;;;;;;;;;;;;;;;28.11;27.83;98990.84;2618980;54;19946;-67
2022/07/30 11:51:50;;;;;;;;;;;;;;;28.29;27.54;98989.13;2618401;54;19947;-66
2022/07/30 11:54:19;;;;;;;;;;;;;;;28.35;27.73;98987.09;2618438;54;19951;-66
2022/07/30 11:56:53;;;;;;;;;;;;;;;28.27;27.26;98993.25;2618381;54;19939;-67
2022/07/30 11:59:22;;;;;;;;;;;;;;;28.09;27.29;98995.00;2617623;47;20426;-68
2022/07/30 12:01:52;;;;;;;;;;;;;;;28.18;27.76;98985.03;2621026;54;19938;-67
2022/07/30 12:04:23;;;;;;;;;;;;;;;28.14;27.69;98982.09;2622440;54;19947;-68
2022/07/30 12:06:52;;;;;;;;;;;;;;;28.11;27.78;98979.19;2622572;54;19946;-68
2022/07/30 12:09:27;;;;;;;;;;;;;;;28.35;27.38;98970.78;2619762;54;19955;-66
2022/07/30 12:12:01;;;;;;;;;;;;;;;28.48;27.12;98956.38;2621931;54;19946;-68
2022/07/30 12:14:38;;;;;;;;;;;;;;;28.81;27.18;98967.84;2620937;39;20322;-68
2022/07/30 12:17:07;;;;;;;;;;;;;;;28.95;26.31;98967.78;2617889;54;19942;-68
2022/07/30 12:19:46;;;;;;;;;;;;;;;28.99;26.20;98957.94;2618009;39;20338;-68
2022/07/30 12:22:17;;;;;;;;;;;;;;;29.09;25.85;98951.41;2618560;39;20349;-67
2022/07/30 12:24:46;;;;;;;;;;;;;;;29.19;25.09;98961.22;2618359;54;19981;-67
2022/07/30 12:27:18;;;;;;;;;;;;;;;29.19;24.97;98959.34;2618215;54;19950;-68
2022/07/30 12:29:48;;;;;;;;;;;;;;;29.24;25.00;98964.66;2617931;54;19966;-68
2022/07/30 12:32:18;;;;;;;;;;;;;;;29.46;25.24;98961.06;2618619;39;20342;-66
2022/07/30 12:34:55;;;;;;;;;;;;;;;29.64;25.46;98942.09;2618235;54;19969;-67
2022/07/30 12:37:24;;;;;;;;;;;;;;;29.78;25.31;98950.97;2617527;54;19965;-67
2022/07/30 12:40:06;;;;;;;;;;;;;;;29.60;24.58;98959.09;2618056;54;20426;-67
2022/07/30 12:42:53;;;;;;;;;;;;;;;29.66;24.09;98937.94;2618176;54;19969;-67
2022/07/30 12:45:29;;;;;;;;;;;;;;;29.79;23.61;98947.91;2618851;39;20317;-67
2022/07/30 12:48:19;;;;;;;;;;;;;;;29.59;23.70;98949.28;2618432;39;20735;-67
2022/07/30 12:50:50;;;;;;;;;;;;;;;29.50;23.52;98942.19;2618049;54;19939;-66
2022/07/30 12:53:20;;;;;;;;;;;;;;;29.68;23.46;98938.44;2618246;54;19938;-67
2022/07/30 12:55:49;;;;;;;;;;;;;;;29.85;23.49;98929.53;2618241;54;19951;-67
2022/07/30 12:58:21;;;;;;;;;;;;;;;29.50;23.55;98937.53;2619181;54;19946;-67
2022/07/30 14:49:34;;;;;;;;;;;;;;;29.83;20.66;98899.84;2616284;54;19937;-69
2022/07/30 14:52:03;;;;;;;;;;;;;;;30.15;20.51;98891.56;2617516;36;19943;-69
2022/07/30 14:54:33;;;;;;;;;;;;;;;30.57;20.46;98901.69;2617407;39;20338;-65
2022/07/30 14:57:02;;;;;;;;;;;;;;;30.84;19.81;98888.84;2617298;54;19974;-69
2022/07/30 14:59:32;;;;;;;;;;;;;;;30.36;20.12;98900.75;2617424;54;19958;-68
2022/07/30 15:02:01;;;;;;;;;;;;;;;30.23;20.38;98898.97;2617893;54;20070;-67
2022/07/30 15:04:34;;;;;;;;;;;;;;;30.56;20.14;98893.84;2618634;54;19947;-65
2022/07/30 15:07:04;;;;;;;;;;;;;;;30.44;20.56;98896.41;2618379;54;19942;-67
2022/07/30 15:09:35;;;;;;;;;;;;;;;30.55;20.15;98889.50;2618624;54;19946;-66
2022/07/30 15:12:06;;;;;;;;;;;;;;;30.82;19.87;98891.91;2618606;54;19938;-67
2022/07/30 15:14:38;;;;;;;;;;;;;;;30.91;19.82;98900.09;2617884;47;20055;-66
2022/07/30 15:17:09;;;;;;;;;;;;;;;31.13;19.98;98890.06;2618111;54;19969;-67
2022/07/30 15:19:41;;;;;;;;;;;;;;;31.25;19.29;98895.63;2618477;54;19985;-67
2022/07/30 15:22:19;;;;;;;;;;;;;;;31.05;18.91;98895.22;2619257;39;20337;-67